sensor_id;sensor_type;location;lat;lon;timestamp;P1;durP1;ratioP1;P2;durP2;ratioP2
19396;SDS011;9834;48.076;11.878;2022-07-23T00:00:39;4.90;;;4.47;;
19396;SDS011;9834;48.076;11.878;2022-07-23T00:03:06;7.03;;;5.68;;
19396;SDS011;9834;48.076;11.878;2022-07-23T00:05:34;6.80;;;5.53;;
19396;SDS011;9834;48.076;11.878;2022-07-23T00:08:01;5.80;;;5.20;;
19396;SDS011;9834;48.076;11.878;2022-07-23T00:10:29;6.03;;;5.43;;
19396;SDS011;9834;48.076;11.878;2022-07-23T00:12:56;6.75;;;5.90;;
19396;SDS011;9834;48.076;11.878;2022-07-23T00:15:23;6.68;;;5.53;;
19396;SDS011;9834;48.076;11.878;2022-07-23T00:17:50;5.97;;;4.82;;
19396;SDS011;9834;48.076;11.878;2022-07-23T00:20:17;5.63;;;5.13;;
19396;SDS011;9834;48.076;11.878;2022-07-23T00:22:47;4.97;;;4.57;;
19396;SDS011;9834;48.076;11.878;2022-07-23T00:25:15;5.88;;;5.28;;
19396;SDS011;9834;48.076;11.878;2022-07-23T00:27:43;5.80;;;4.75;;
19396;SDS011;9834;48.076;11.878;2022-07-23T00:30:11;5.55;;;5.05;;
19396;SDS011;9834;48.076;11.878;2022-07-23T00:32:45;7.07;;;4.93;;
19396;SDS011;9834;48.076;11.878;2022-07-23T00:35:13;6.30;;;5.32;;
19396;SDS011;9834;48.076;11.878;2022-07-23T00:37:40;5.80;;;5.32;;
19396;SDS011;9834;48.076;11.878;2022-07-23T00:40:07;4.90;;;4.50;;
19396;SDS011;9834;48.076;11.878;2022-07-23T00:42:35;5.40;;;4.93;;
19396;SDS011;9834;48.076;11.878;2022-07-23T00:45:04;5.43;;;4.93;;
19396;SDS011;9834;48.076;11.878;2022-07-23T00:47:32;5.63;;;5.13;;
19396;SDS011;9834;48.076;11.878;2022-07-23T00:49:59;7.20;;;6.50;;
19396;SDS011;9834;48.076;11.878;2022-07-23T00:52:27;6.28;;;5.78;;
19396;SDS011;9834;48.076;11.878;2022-07-23T00:54:54;7.25;;;6.63;;
19396;SDS011;9834;48.076;11.878;2022-07-23T00:57:21;6.65;;;5.95;;
19396;SDS011;9834;48.076;11.878;2022-07-23T00:59:48;7.70;;;6.43;;
19396;SDS011;9834;48.076;11.878;2022-07-23T01:02:16;6.20;;;5.70;;
19396;SDS011;9834;48.076;11.878;2022-07-23T01:04:43;7.10;;;6.43;;
19396;SDS011;9834;48.076;11.878;2022-07-23T01:07:11;6.55;;;5.95;;
19396;SDS011;9834;48.076;11.878;2022-07-23T01:09:38;6.38;;;5.85;;
19396;SDS011;9834;48.076;11.878;2022-07-23T01:12:05;6.25;;;5.65;;
19396;SDS011;9834;48.076;11.878;2022-07-23T01:14:33;6.28;;;5.68;;
19396;SDS011;9834;48.076;11.878;2022-07-23T01:17:00;6.40;;;5.80;;
19396;SDS011;9834;48.076;11.878;2022-07-23T01:19:28;6.93;;;6.05;;
19396;SDS011;9834;48.076;11.878;2022-07-23T01:21:56;7.28;;;5.63;;
19396;SDS011;9834;48.076;11.878;2022-07-23T01:24:25;5.75;;;5.25;;
19396;SDS011;9834;48.076;11.878;2022-07-23T01:26:52;6.32;;;5.72;;
19396;SDS011;9834;48.076;11.878;2022-07-23T01:29:20;5.90;;;5.30;;
19396;SDS011;9834;48.076;11.878;2022-07-23T01:31:47;5.30;;;4.90;;
19396;SDS011;9834;48.076;11.878;2022-07-23T01:34:14;6.05;;;5.38;;
19396;SDS011;9834;48.076;11.878;2022-07-23T01:36:41;7.78;;;6.05;;
19396;SDS011;9834;48.076;11.878;2022-07-23T01:39:08;8.52;;;6.25;;
19396;SDS011;9834;48.076;11.878;2022-07-23T01:41:36;10.85;;;7.57;;
19396;SDS011;9834;48.076;11.878;2022-07-23T01:44:03;8.65;;;7.13;;
19396;SDS011;9834;48.076;11.878;2022-07-23T01:46:30;13.77;;;7.47;;
19396;SDS011;9834;48.076;11.878;2022-07-23T01:48:57;13.45;;;6.78;;
19396;SDS011;9834;48.076;11.878;2022-07-23T01:51:24;11.90;;;6.68;;
19396;SDS011;9834;48.076;11.878;2022-07-23T01:53:51;17.33;;;6.57;;
19396;SDS011;9834;48.076;11.878;2022-07-23T01:56:18;9.52;;;5.65;;
19396;SDS011;9834;48.076;11.878;2022-07-23T01:58:47;11.05;;;6.03;;
19396;SDS011;9834;48.076;11.878;2022-07-23T02:01:14;9.55;;;5.10;;
19396;SDS011;9834;48.076;11.878;2022-07-23T02:03:41;11.07;;;5.93;;
19396;SDS011;9834;48.076;11.878;2022-07-23T02:06:08;7.43;;;4.38;;
19396;SDS011;9834;48.076;11.878;2022-07-23T02:08:35;7.68;;;3.30;;
19396;SDS011;9834;48.076;11.878;2022-07-23T02:11:02;6.32;;;3.28;;
19396;SDS011;9834;48.076;11.878;2022-07-23T02:13:29;7.50;;;3.47;;
19396;SDS011;9834;48.076;11.878;2022-07-23T02:15:58;5.75;;;3.40;;
19396;SDS011;9834;48.076;11.878;2022-07-23T02:18:24;6.50;;;2.97;;
19396;SDS011;9834;48.076;11.878;2022-07-23T02:20:51;5.78;;;2.83;;
19396;SDS011;9834;48.076;11.878;2022-07-23T02:23:18;7.05;;;3.17;;
19396;SDS011;9834;48.076;11.878;2022-07-23T02:25:45;4.35;;;2.97;;
19396;SDS011;9834;48.076;11.878;2022-07-23T02:28:13;3.00;;;2.55;;
19396;SDS011;9834;48.076;11.878;2022-07-23T02:30:40;7.18;;;2.88;;
19396;SDS011;9834;48.076;11.878;2022-07-23T02:33:08;4.75;;;2.63;;
19396;SDS011;9834;48.076;11.878;2022-07-23T02:35:35;2.88;;;2.58;;
19396;SDS011;9834;48.076;11.878;2022-07-23T02:38:02;4.00;;;2.95;;
19396;SDS011;9834;48.076;11.878;2022-07-23T02:40:29;3.10;;;2.80;;
19396;SDS011;9834;48.076;11.878;2022-07-23T02:42:56;3.30;;;2.40;;
19396;SDS011;9834;48.076;11.878;2022-07-23T02:45:23;3.85;;;3.08;;
19396;SDS011;9834;48.076;11.878;2022-07-23T02:47:50;2.95;;;2.53;;
19396;SDS011;9834;48.076;11.878;2022-07-23T02:50:19;2.95;;;2.40;;
19396;SDS011;9834;48.076;11.878;2022-07-23T02:52:46;2.95;;;2.65;;
19396;SDS011;9834;48.076;11.878;2022-07-23T02:55:13;3.35;;;2.85;;
19396;SDS011;9834;48.076;11.878;2022-07-23T02:57:40;4.18;;;2.58;;
19396;SDS011;9834;48.076;11.878;2022-07-23T03:00:08;2.60;;;2.40;;
19396;SDS011;9834;48.076;11.878;2022-07-23T03:02:35;2.65;;;2.30;;
19396;SDS011;9834;48.076;11.878;2022-07-23T03:05:03;2.85;;;2.58;;
19396;SDS011;9834;48.076;11.878;2022-07-23T03:07:32;2.90;;;2.47;;
19396;SDS011;9834;48.076;11.878;2022-07-23T03:09:59;2.47;;;2.28;;
19396;SDS011;9834;48.076;11.878;2022-07-23T03:12:25;3.30;;;3.00;;
19396;SDS011;9834;48.076;11.878;2022-07-23T03:14:52;2.65;;;2.42;;
19396;SDS011;9834;48.076;11.878;2022-07-23T03:17:20;3.05;;;2.70;;
19396;SDS011;9834;48.076;11.878;2022-07-23T03:19:47;3.13;;;2.80;;
19396;SDS011;9834;48.076;11.878;2022-07-23T03:22:14;3.35;;;3.05;;
19396;SDS011;9834;48.076;11.878;2022-07-23T03:24:42;3.97;;;3.10;;
19396;SDS011;9834;48.076;11.878;2022-07-23T03:27:21;3.90;;;3.28;;
19396;SDS011;9834;48.076;11.878;2022-07-23T03:29:48;3.42;;;3.00;;
19396;SDS011;9834;48.076;11.878;2022-07-23T03:32:16;3.20;;;2.85;;
19396;SDS011;9834;48.076;11.878;2022-07-23T03:34:43;3.87;;;3.10;;
19396;SDS011;9834;48.076;11.878;2022-07-23T03:37:10;3.07;;;2.80;;
19396;SDS011;9834;48.076;11.878;2022-07-23T03:39:37;4.03;;;3.63;;
19396;SDS011;9834;48.076;11.878;2022-07-23T03:42:06;4.32;;;3.28;;
19396;SDS011;9834;48.076;11.878;2022-07-23T03:44:33;3.63;;;3.20;;
19396;SDS011;9834;48.076;11.878;2022-07-23T03:47:05;3.70;;;3.17;;
19396;SDS011;9834;48.076;11.878;2022-07-23T03:49:32;3.30;;;2.93;;
19396;SDS011;9834;48.076;11.878;2022-07-23T03:52:00;3.43;;;3.20;;
19396;SDS011;9834;48.076;11.878;2022-07-23T03:54:27;3.80;;;3.43;;
19396;SDS011;9834;48.076;11.878;2022-07-23T03:56:57;3.83;;;3.53;;
19396;SDS011;9834;48.076;11.878;2022-07-23T03:59:26;4.00;;;3.60;;
19396;SDS011;9834;48.076;11.878;2022-07-23T04:01:52;4.00;;;3.70;;
19396;SDS011;9834;48.076;11.878;2022-07-23T04:04:20;4.30;;;3.90;;
19396;SDS011;9834;48.076;11.878;2022-07-23T04:06:47;5.50;;;3.70;;
19396;SDS011;9834;48.076;11.878;2022-07-23T04:09:14;4.10;;;3.70;;
19396;SDS011;9834;48.076;11.878;2022-07-23T04:11:42;4.23;;;3.67;;
19396;SDS011;9834;48.076;11.878;2022-07-23T04:14:09;5.33;;;4.67;;
19396;SDS011;9834;48.076;11.878;2022-07-23T04:16:37;4.93;;;4.53;;
19396;SDS011;9834;48.076;11.878;2022-07-23T04:19:04;5.00;;;4.50;;
19396;SDS011;9834;48.076;11.878;2022-07-23T04:21:31;5.10;;;4.60;;
19396;SDS011;9834;48.076;11.878;2022-07-23T04:23:58;5.40;;;4.63;;
19396;SDS011;9834;48.076;11.878;2022-07-23T04:26:25;5.33;;;4.67;;
19396;SDS011;9834;48.076;11.878;2022-07-23T04:28:52;7.13;;;5.07;;
19396;SDS011;9834;48.076;11.878;2022-07-23T04:31:19;6.27;;;5.20;;
19396;SDS011;9834;48.076;11.878;2022-07-23T04:33:50;6.27;;;4.83;;
19396;SDS011;9834;48.076;11.878;2022-07-23T04:36:18;4.90;;;4.40;;
19396;SDS011;9834;48.076;11.878;2022-07-23T04:38:45;6.33;;;5.23;;
19396;SDS011;9834;48.076;11.878;2022-07-23T04:41:12;4.50;;;4.10;;
19396;SDS011;9834;48.076;11.878;2022-07-23T04:43:39;5.70;;;4.73;;
19396;SDS011;9834;48.076;11.878;2022-07-23T04:46:06;4.93;;;4.45;;
19396;SDS011;9834;48.076;11.878;2022-07-23T04:48:33;5.75;;;5.15;;
19396;SDS011;9834;48.076;11.878;2022-07-23T04:51:02;5.65;;;5.15;;
19396;SDS011;9834;48.076;11.878;2022-07-23T04:53:29;7.33;;;5.23;;
19396;SDS011;9834;48.076;11.878;2022-07-23T04:55:56;5.03;;;4.63;;
19396;SDS011;9834;48.076;11.878;2022-07-23T04:58:23;5.70;;;5.10;;
19396;SDS011;9834;48.076;11.878;2022-07-23T05:00:51;6.22;;;4.90;;
19396;SDS011;9834;48.076;11.878;2022-07-23T05:03:18;6.18;;;4.90;;
19396;SDS011;9834;48.076;11.878;2022-07-23T05:05:45;5.07;;;4.10;;
19396;SDS011;9834;48.076;11.878;2022-07-23T05:08:16;5.47;;;4.65;;
19396;SDS011;9834;48.076;11.878;2022-07-23T05:10:43;4.82;;;4.35;;
19396;SDS011;9834;48.076;11.878;2022-07-23T05:13:10;4.97;;;4.47;;
19396;SDS011;9834;48.076;11.878;2022-07-23T05:15:38;5.07;;;4.68;;
19396;SDS011;9834;48.076;11.878;2022-07-23T05:18:05;4.30;;;3.92;;
19396;SDS011;9834;48.076;11.878;2022-07-23T05:20:37;4.85;;;4.32;;
19396;SDS011;9834;48.076;11.878;2022-07-23T05:23:04;5.18;;;4.57;;
19396;SDS011;9834;48.076;11.878;2022-07-23T05:25:33;5.22;;;4.78;;
19396;SDS011;9834;48.076;11.878;2022-07-23T05:28:00;5.40;;;4.75;;
19396;SDS011;9834;48.076;11.878;2022-07-23T05:30:27;4.50;;;4.10;;
19396;SDS011;9834;48.076;11.878;2022-07-23T05:32:54;5.30;;;4.32;;
19396;SDS011;9834;48.076;11.878;2022-07-23T05:35:21;5.53;;;5.03;;
19396;SDS011;9834;48.076;11.878;2022-07-23T05:37:48;4.78;;;4.32;;
19396;SDS011;9834;48.076;11.878;2022-07-23T05:40:17;6.10;;;4.60;;
19396;SDS011;9834;48.076;11.878;2022-07-23T05:42:48;4.40;;;3.90;;
19396;SDS011;9834;48.076;11.878;2022-07-23T05:45:15;4.90;;;4.50;;
19396;SDS011;9834;48.076;11.878;2022-07-23T05:47:43;6.40;;;4.70;;
19396;SDS011;9834;48.076;11.878;2022-07-23T05:50:11;4.50;;;4.10;;
19396;SDS011;9834;48.076;11.878;2022-07-23T05:52:39;4.88;;;4.47;;
19396;SDS011;9834;48.076;11.878;2022-07-23T05:55:07;4.90;;;4.50;;
19396;SDS011;9834;48.076;11.878;2022-07-23T05:57:37;6.15;;;4.68;;
19396;SDS011;9834;48.076;11.878;2022-07-23T06:00:07;5.13;;;4.25;;
19396;SDS011;9834;48.076;11.878;2022-07-23T06:02:35;5.75;;;4.90;;
19396;SDS011;9834;48.076;11.878;2022-07-23T06:05:03;4.45;;;4.05;;
19396;SDS011;9834;48.076;11.878;2022-07-23T06:07:32;4.50;;;4.05;;
19396;SDS011;9834;48.076;11.878;2022-07-23T06:09:59;5.32;;;4.82;;
19396;SDS011;9834;48.076;11.878;2022-07-23T06:12:26;4.43;;;4.05;;
19396;SDS011;9834;48.076;11.878;2022-07-23T06:14:53;4.60;;;4.20;;
19396;SDS011;9834;48.076;11.878;2022-07-23T06:17:22;5.10;;;4.60;;
19396;SDS011;9834;48.076;11.878;2022-07-23T06:19:49;6.97;;;5.45;;
19396;SDS011;9834;48.076;11.878;2022-07-23T06:22:16;5.20;;;4.72;;
19396;SDS011;9834;48.076;11.878;2022-07-23T06:24:43;5.75;;;4.60;;
19396;SDS011;9834;48.076;11.878;2022-07-23T06:27:10;5.53;;;5.05;;
19396;SDS011;9834;48.076;11.878;2022-07-23T06:29:38;5.40;;;4.80;;
19396;SDS011;9834;48.076;11.878;2022-07-23T06:32:05;5.20;;;4.70;;
19396;SDS011;9834;48.076;11.878;2022-07-23T06:34:34;5.45;;;5.03;;
19396;SDS011;9834;48.076;11.878;2022-07-23T06:37:01;5.70;;;5.20;;
19396;SDS011;9834;48.076;11.878;2022-07-23T06:39:28;5.25;;;4.75;;
19396;SDS011;9834;48.076;11.878;2022-07-23T06:41:55;7.32;;;5.50;;
19396;SDS011;9834;48.076;11.878;2022-07-23T06:44:22;7.63;;;5.22;;
19396;SDS011;9834;48.076;11.878;2022-07-23T06:46:49;5.32;;;4.93;;
19396;SDS011;9834;48.076;11.878;2022-07-23T06:49:16;5.72;;;5.22;;
19396;SDS011;9834;48.076;11.878;2022-07-23T06:51:45;5.90;;;5.40;;
19396;SDS011;9834;48.076;11.878;2022-07-23T06:54:12;7.05;;;5.22;;
19396;SDS011;9834;48.076;11.878;2022-07-23T06:56:39;5.93;;;5.25;;
19396;SDS011;9834;48.076;11.878;2022-07-23T06:59:06;5.57;;;5.00;;
19396;SDS011;9834;48.076;11.878;2022-07-23T07:01:33;5.80;;;5.30;;
19396;SDS011;9834;48.076;11.878;2022-07-23T07:04:00;6.00;;;5.10;;
19396;SDS011;9834;48.076;11.878;2022-07-23T07:06:27;5.53;;;5.03;;
19396;SDS011;9834;48.076;11.878;2022-07-23T07:08:56;5.22;;;4.72;;
19396;SDS011;9834;48.076;11.878;2022-07-23T07:11:23;6.07;;;5.13;;
19396;SDS011;9834;48.076;11.878;2022-07-23T07:13:50;6.13;;;5.40;;
19396;SDS011;9834;48.076;11.878;2022-07-23T07:16:17;6.30;;;4.60;;
19396;SDS011;9834;48.076;11.878;2022-07-23T07:18:44;5.80;;;5.10;;
19396;SDS011;9834;48.076;11.878;2022-07-23T07:21:11;5.28;;;4.88;;
19396;SDS011;9834;48.076;11.878;2022-07-23T07:23:38;5.40;;;4.90;;
19396;SDS011;9834;48.076;11.878;2022-07-23T07:26:07;5.25;;;4.75;;
19396;SDS011;9834;48.076;11.878;2022-07-23T07:28:34;5.88;;;5.28;;
19396;SDS011;9834;48.076;11.878;2022-07-23T07:31:01;5.85;;;5.25;;
19396;SDS011;9834;48.076;11.878;2022-07-23T07:33:28;6.13;;;5.05;;
19396;SDS011;9834;48.076;11.878;2022-07-23T07:35:55;5.30;;;4.80;;
19396;SDS011;9834;48.076;11.878;2022-07-23T07:38:22;5.57;;;5.07;;
19396;SDS011;9834;48.076;11.878;2022-07-23T07:40:49;5.50;;;4.68;;
19396;SDS011;9834;48.076;11.878;2022-07-23T07:43:18;5.63;;;5.07;;
19396;SDS011;9834;48.076;11.878;2022-07-23T07:45:44;5.28;;;4.78;;
19396;SDS011;9834;48.076;11.878;2022-07-23T07:48:12;4.72;;;4.32;;
19396;SDS011;9834;48.076;11.878;2022-07-23T07:50:39;6.28;;;5.10;;
19396;SDS011;9834;48.076;11.878;2022-07-23T07:53:06;6.03;;;5.35;;
19396;SDS011;9834;48.076;11.878;2022-07-23T07:55:33;5.78;;;5.28;;
19396;SDS011;9834;48.076;11.878;2022-07-23T07:58:01;9.30;;;6.32;;
19396;SDS011;9834;48.076;11.878;2022-07-23T08:00:29;7.45;;;5.82;;
19396;SDS011;9834;48.076;11.878;2022-07-23T08:02:58;6.13;;;5.13;;
19396;SDS011;9834;48.076;11.878;2022-07-23T08:05:26;5.53;;;5.03;;
19396;SDS011;9834;48.076;11.878;2022-07-23T08:07:55;5.75;;;5.15;;
19396;SDS011;9834;48.076;11.878;2022-07-23T08:10:23;6.45;;;5.82;;
19396;SDS011;9834;48.076;11.878;2022-07-23T08:12:51;6.30;;;5.75;;
19396;SDS011;9834;48.076;11.878;2022-07-23T08:15:20;6.35;;;5.85;;
19396;SDS011;9834;48.076;11.878;2022-07-23T08:17:49;7.28;;;5.70;;
19396;SDS011;9834;48.076;11.878;2022-07-23T08:20:17;6.05;;;5.55;;
19396;SDS011;9834;48.076;11.878;2022-07-23T08:22:46;6.30;;;5.80;;
19396;SDS011;9834;48.076;11.878;2022-07-23T08:25:15;6.35;;;5.75;;
19396;SDS011;9834;48.076;11.878;2022-07-23T08:27:44;6.90;;;5.75;;
19396;SDS011;9834;48.076;11.878;2022-07-23T08:30:11;6.22;;;5.63;;
19396;SDS011;9834;48.076;11.878;2022-07-23T08:32:50;6.70;;;6.07;;
19396;SDS011;9834;48.076;11.878;2022-07-23T08:35:21;6.70;;;5.93;;
19396;SDS011;9834;48.076;11.878;2022-07-23T08:37:49;7.13;;;5.38;;
19396;SDS011;9834;48.076;11.878;2022-07-23T08:40:17;6.28;;;5.68;;
19396;SDS011;9834;48.076;11.878;2022-07-23T08:42:44;8.93;;;6.22;;
19396;SDS011;9834;48.076;11.878;2022-07-23T08:45:13;6.53;;;5.93;;
19396;SDS011;9834;48.076;11.878;2022-07-23T08:47:44;6.22;;;5.63;;
19396;SDS011;9834;48.076;11.878;2022-07-23T08:50:13;6.82;;;6.07;;
19396;SDS011;9834;48.076;11.878;2022-07-23T08:52:41;6.07;;;5.53;;
19396;SDS011;9834;48.076;11.878;2022-07-23T08:55:08;5.82;;;5.32;;
19396;SDS011;9834;48.076;11.878;2022-07-23T08:57:35;8.00;;;5.75;;
19396;SDS011;9834;48.076;11.878;2022-07-23T09:00:03;6.65;;;6.00;;
19396;SDS011;9834;48.076;11.878;2022-07-23T09:02:31;6.70;;;5.45;;
19396;SDS011;9834;48.076;11.878;2022-07-23T09:05:05;5.90;;;5.40;;
19396;SDS011;9834;48.076;11.878;2022-07-23T09:07:34;5.65;;;5.00;;
19396;SDS011;9834;48.076;11.878;2022-07-23T09:10:05;6.32;;;5.43;;
19396;SDS011;9834;48.076;11.878;2022-07-23T09:12:33;5.93;;;5.32;;
19396;SDS011;9834;48.076;11.878;2022-07-23T09:15:04;5.60;;;4.97;;
19396;SDS011;9834;48.076;11.878;2022-07-23T09:17:39;5.68;;;5.18;;
19396;SDS011;9834;48.076;11.878;2022-07-23T09:20:10;5.53;;;4.88;;
19396;SDS011;9834;48.076;11.878;2022-07-23T09:22:40;6.43;;;5.30;;
19396;SDS011;9834;48.076;11.878;2022-07-23T09:25:12;8.80;;;5.10;;
19396;SDS011;9834;48.076;11.878;2022-07-23T09:27:47;5.55;;;5.05;;
19396;SDS011;9834;48.076;11.878;2022-07-23T09:30:20;6.22;;;5.18;;
19396;SDS011;9834;48.076;11.878;2022-07-23T09:33:04;5.72;;;5.13;;
19396;SDS011;9834;48.076;11.878;2022-07-23T09:35:48;5.40;;;4.80;;
19396;SDS011;9834;48.076;11.878;2022-07-23T09:38:19;5.05;;;4.65;;
19396;SDS011;9834;48.076;11.878;2022-07-23T09:40:47;5.60;;;5.13;;
19396;SDS011;9834;48.076;11.878;2022-07-23T09:43:32;8.35;;;4.82;;
19396;SDS011;9834;48.076;11.878;2022-07-23T09:48:48;5.00;;;4.60;;
19396;SDS011;9834;48.076;11.878;2022-07-23T09:51:16;5.95;;;4.90;;
19396;SDS011;9834;48.076;11.878;2022-07-23T09:53:46;5.25;;;4.75;;
19396;SDS011;9834;48.076;11.878;2022-07-23T09:56:14;5.70;;;4.68;;
19396;SDS011;9834;48.076;11.878;2022-07-23T09:58:41;5.50;;;5.00;;
19396;SDS011;9834;48.076;11.878;2022-07-23T10:01:14;5.82;;;5.13;;
19396;SDS011;9834;48.076;11.878;2022-07-23T10:03:41;5.68;;;5.00;;
19396;SDS011;9834;48.076;11.878;2022-07-23T10:06:09;5.32;;;4.75;;
19396;SDS011;9834;48.076;11.878;2022-07-23T10:08:39;5.90;;;4.88;;
19396;SDS011;9834;48.076;11.878;2022-07-23T10:11:09;6.25;;;4.53;;
19396;SDS011;9834;48.076;11.878;2022-07-23T10:13:38;5.15;;;4.75;;
19396;SDS011;9834;48.076;11.878;2022-07-23T10:16:18;4.72;;;4.43;;
19396;SDS011;9834;48.076;11.878;2022-07-23T10:18:45;4.85;;;4.40;;
19396;SDS011;9834;48.076;11.878;2022-07-23T10:21:16;5.47;;;4.72;;
19396;SDS011;9834;48.076;11.878;2022-07-23T10:23:58;6.45;;;4.50;;
19396;SDS011;9834;48.076;11.878;2022-07-23T10:26:42;4.85;;;4.45;;
19396;SDS011;9834;48.076;11.878;2022-07-23T10:29:21;5.70;;;5.20;;
19396;SDS011;9834;48.076;11.878;2022-07-23T10:31:58;5.07;;;4.55;;
19396;SDS011;9834;48.076;11.878;2022-07-23T10:34:34;6.13;;;4.95;;
19396;SDS011;9834;48.076;11.878;2022-07-23T10:37:11;5.70;;;5.10;;
19396;SDS011;9834;48.076;11.878;2022-07-23T10:39:43;5.13;;;4.70;;
19396;SDS011;9834;48.076;11.878;2022-07-23T10:42:13;5.20;;;4.75;;
19396;SDS011;9834;48.076;11.878;2022-07-23T10:44:41;6.10;;;4.90;;
19396;SDS011;9834;48.076;11.878;2022-07-23T10:47:11;6.20;;;5.25;;
19396;SDS011;9834;48.076;11.878;2022-07-23T10:50:04;5.50;;;5.00;;
19396;SDS011;9834;48.076;11.878;2022-07-23T10:55:43;5.40;;;4.82;;
19396;SDS011;9834;48.076;11.878;2022-07-23T10:58:20;9.07;;;5.07;;
19396;SDS011;9834;48.076;11.878;2022-07-23T11:00:52;5.30;;;4.85;;
19396;SDS011;9834;48.076;11.878;2022-07-23T11:03:30;5.45;;;4.95;;
19396;SDS011;9834;48.076;11.878;2022-07-23T11:06:01;5.22;;;4.82;;
19396;SDS011;9834;48.076;11.878;2022-07-23T11:08:28;6.40;;;4.57;;
19396;SDS011;9834;48.076;11.878;2022-07-23T11:11:07;5.60;;;5.10;;
19396;SDS011;9834;48.076;11.878;2022-07-23T11:13:45;7.05;;;5.03;;
19396;SDS011;9834;48.076;11.878;2022-07-23T11:19:12;4.60;;;4.20;;
19396;SDS011;9834;48.076;11.878;2022-07-23T11:21:42;5.03;;;4.53;;
19396;SDS011;9834;48.076;11.878;2022-07-23T11:24:11;4.88;;;4.05;;
19396;SDS011;9834;48.076;11.878;2022-07-23T11:26:43;6.35;;;4.85;;
19396;SDS011;9834;48.076;11.878;2022-07-23T11:32:17;5.13;;;4.72;;
19396;SDS011;9834;48.076;11.878;2022-07-23T11:35:18;5.18;;;4.20;;
19396;SDS011;9834;48.076;11.878;2022-07-23T11:37:47;6.65;;;4.82;;
19396;SDS011;9834;48.076;11.878;2022-07-23T11:40:15;5.38;;;4.03;;
19396;SDS011;9834;48.076;11.878;2022-07-23T11:42:51;6.22;;;4.50;;
19396;SDS011;9834;48.076;11.878;2022-07-23T11:45:25;6.22;;;5.63;;
19396;SDS011;9834;48.076;11.878;2022-07-23T11:47:57;4.90;;;4.38;;
19396;SDS011;9834;48.076;11.878;2022-07-23T11:50:24;5.00;;;4.60;;
19396;SDS011;9834;48.076;11.878;2022-07-23T11:52:52;7.47;;;4.70;;
19396;SDS011;9834;48.076;11.878;2022-07-23T11:55:20;5.95;;;4.40;;
19396;SDS011;9834;48.076;11.878;2022-07-23T11:57:47;5.35;;;4.85;;
19396;SDS011;9834;48.076;11.878;2022-07-23T12:00:17;5.18;;;4.55;;
19396;SDS011;9834;48.076;11.878;2022-07-23T12:02:47;5.07;;;4.68;;
19396;SDS011;9834;48.076;11.878;2022-07-23T12:05:16;5.40;;;4.90;;
19396;SDS011;9834;48.076;11.878;2022-07-23T12:07:45;6.00;;;4.95;;
19396;SDS011;9834;48.076;11.878;2022-07-23T12:10:16;7.03;;;5.00;;
19396;SDS011;9834;48.076;11.878;2022-07-23T12:12:45;6.07;;;5.57;;
19396;SDS011;9834;48.076;11.878;2022-07-23T12:15:14;5.75;;;5.25;;
19396;SDS011;9834;48.076;11.878;2022-07-23T12:17:43;4.70;;;4.40;;
19396;SDS011;9834;48.076;11.878;2022-07-23T12:20:14;5.30;;;4.80;;
19396;SDS011;9834;48.076;11.878;2022-07-23T12:22:43;6.75;;;4.53;;
19396;SDS011;9834;48.076;11.878;2022-07-23T12:25:12;5.93;;;5.20;;
19396;SDS011;9834;48.076;11.878;2022-07-23T12:27:40;5.32;;;4.93;;
19396;SDS011;9834;48.076;11.878;2022-07-23T12:30:15;5.85;;;5.25;;
19396;SDS011;9834;48.076;11.878;2022-07-23T12:32:43;6.93;;;5.13;;
19396;SDS011;9834;48.076;11.878;2022-07-23T12:35:11;6.30;;;4.88;;
19396;SDS011;9834;48.076;11.878;2022-07-23T12:37:41;5.30;;;4.53;;
19396;SDS011;9834;48.076;11.878;2022-07-23T12:40:19;5.28;;;4.70;;
19396;SDS011;9834;48.076;11.878;2022-07-23T12:42:55;8.02;;;5.30;;
19396;SDS011;9834;48.076;11.878;2022-07-23T12:45:24;6.40;;;5.28;;
19396;SDS011;9834;48.076;11.878;2022-07-23T12:47:52;5.72;;;5.10;;
19396;SDS011;9834;48.076;11.878;2022-07-23T12:50:32;5.68;;;5.07;;
19396;SDS011;9834;48.076;11.878;2022-07-23T12:53:10;6.03;;;5.32;;
19396;SDS011;9834;48.076;11.878;2022-07-23T12:55:39;6.70;;;5.07;;
19396;SDS011;9834;48.076;11.878;2022-07-23T12:58:08;6.13;;;5.60;;
19396;SDS011;9834;48.076;11.878;2022-07-23T13:00:53;5.65;;;5.03;;
19396;SDS011;9834;48.076;11.878;2022-07-23T13:03:30;5.22;;;4.72;;
19396;SDS011;9834;48.076;11.878;2022-07-23T13:06:00;4.95;;;4.55;;
19396;SDS011;9834;48.076;11.878;2022-07-23T13:08:29;4.88;;;4.45;;
19396;SDS011;9834;48.076;11.878;2022-07-23T13:10:58;5.25;;;4.82;;
19396;SDS011;9834;48.076;11.878;2022-07-23T13:13:26;5.75;;;5.25;;
19396;SDS011;9834;48.076;11.878;2022-07-23T13:15:54;5.93;;;5.13;;
19396;SDS011;9834;48.076;11.878;2022-07-23T13:18:22;4.53;;;4.13;;
19396;SDS011;9834;48.076;11.878;2022-07-23T13:20:49;5.80;;;5.20;;
19396;SDS011;9834;48.076;11.878;2022-07-23T13:23:18;6.40;;;5.05;;
19396;SDS011;9834;48.076;11.878;2022-07-23T13:25:46;5.95;;;5.35;;
19396;SDS011;9834;48.076;11.878;2022-07-23T13:28:14;5.53;;;4.95;;
19396;SDS011;9834;48.076;11.878;2022-07-23T13:30:42;5.03;;;4.63;;
19396;SDS011;9834;48.076;11.878;2022-07-23T13:33:11;6.28;;;5.00;;
19396;SDS011;9834;48.076;11.878;2022-07-23T13:35:38;5.72;;;5.15;;
19396;SDS011;9834;48.076;11.878;2022-07-23T13:38:06;5.55;;;5.05;;
19396;SDS011;9834;48.076;11.878;2022-07-23T13:40:38;4.78;;;4.38;;
19396;SDS011;9834;48.076;11.878;2022-07-23T13:43:07;5.10;;;4.63;;
19396;SDS011;9834;48.076;11.878;2022-07-23T13:45:35;7.22;;;5.30;;
19396;SDS011;9834;48.076;11.878;2022-07-23T13:48:03;5.40;;;4.80;;
19396;SDS011;9834;48.076;11.878;2022-07-23T13:50:31;6.13;;;5.53;;
19396;SDS011;9834;48.076;11.878;2022-07-23T13:53:00;6.15;;;5.65;;
19396;SDS011;9834;48.076;11.878;2022-07-23T13:55:27;6.28;;;5.47;;
19396;SDS011;9834;48.076;11.878;2022-07-23T13:57:56;5.47;;;4.88;;
19396;SDS011;9834;48.076;11.878;2022-07-23T14:00:23;5.65;;;4.85;;
19396;SDS011;9834;48.076;11.878;2022-07-23T14:02:50;5.95;;;5.40;;
19396;SDS011;9834;48.076;11.878;2022-07-23T14:05:17;5.57;;;5.07;;
19396;SDS011;9834;48.076;11.878;2022-07-23T14:07:44;5.47;;;4.90;;
19396;SDS011;9834;48.076;11.878;2022-07-23T14:10:15;8.77;;;5.55;;
19396;SDS011;9834;48.076;11.878;2022-07-23T14:12:43;5.70;;;5.20;;
19396;SDS011;9834;48.076;11.878;2022-07-23T14:15:12;6.10;;;5.60;;
19396;SDS011;9834;48.076;11.878;2022-07-23T14:17:40;5.97;;;4.75;;
19396;SDS011;9834;48.076;11.878;2022-07-23T14:20:09;5.65;;;5.15;;
19396;SDS011;9834;48.076;11.878;2022-07-23T14:22:37;6.10;;;5.57;;
19396;SDS011;9834;48.076;11.878;2022-07-23T14:25:04;6.03;;;4.78;;
19396;SDS011;9834;48.076;11.878;2022-07-23T14:27:33;7.28;;;5.28;;
19396;SDS011;9834;48.076;11.878;2022-07-23T14:30:00;4.80;;;4.40;;
19396;SDS011;9834;48.076;11.878;2022-07-23T14:32:29;7.30;;;5.13;;
19396;SDS011;9834;48.076;11.878;2022-07-23T14:34:56;6.22;;;5.60;;
19396;SDS011;9834;48.076;11.878;2022-07-23T14:37:23;5.75;;;5.15;;
19396;SDS011;9834;48.076;11.878;2022-07-23T14:39:50;5.40;;;4.90;;
19396;SDS011;9834;48.076;11.878;2022-07-23T14:42:18;6.03;;;5.05;;
19396;SDS011;9834;48.076;11.878;2022-07-23T14:44:45;5.72;;;4.95;;
19396;SDS011;9834;48.076;11.878;2022-07-23T14:47:12;5.43;;;4.93;;
19396;SDS011;9834;48.076;11.878;2022-07-23T14:49:41;7.10;;;5.43;;
19396;SDS011;9834;48.076;11.878;2022-07-23T14:52:08;7.57;;;4.85;;
19396;SDS011;9834;48.076;11.878;2022-07-23T14:54:35;5.75;;;4.72;;
19396;SDS011;9834;48.076;11.878;2022-07-23T14:57:02;5.88;;;4.85;;
19396;SDS011;9834;48.076;11.878;2022-07-23T14:59:30;4.90;;;4.50;;
19396;SDS011;9834;48.076;11.878;2022-07-23T15:01:57;5.00;;;4.35;;
19396;SDS011;9834;48.076;11.878;2022-07-23T15:04:24;4.90;;;4.40;;
19396;SDS011;9834;48.076;11.878;2022-07-23T15:06:53;5.85;;;4.88;;
19396;SDS011;9834;48.076;11.878;2022-07-23T15:09:20;5.00;;;4.53;;